Airfield :







YOU CAN JOIN US ON...

 
LOGIN :

Register | Disclaimer

   EN    FR    IT 

 









Legend :    VFR   Marginal VFR   IFR   Intensive IFR   Very Intensive IFR
Visi :
Ceiling :
>= 8 km
>= 3000ft
5 to 8 km
1000 to 3000 ft
1500m to 5 km
500 to 1000 ft
800 to 1500m
200 to 500 ft
< 800m
< 200 ft
Symbols :   Thunderstorms  Fog  Heavy snow  Heavy precipitations  Wind > 20 kt






- Airport Elevation : 118 ft
- IATA code : YUL


CYUL - Montréal - Pierre-Elliott-Trudeau Int.

CURRENT METAR :
  • 291500Z 04008KT 30SM FEW025 FEW120 M09/M16 A3022 RMK CU1AC1 CU TR AC TR SLP236

EXPIRED METARs :
  • 291400Z 03007KT 340V050 15SM FEW025 FEW120 M10/M15 A3020 RMK CF1AC1 CF TR AC TR SLP229
  • 291300Z 33003KT 15SM FEW010 FEW090 M11/M13 A3017 RMK SF1AC1 SF TR AC TR SLP219

TAF TAF CYUL
Valid from the 29 at 15:00 until the 30 at 12:00 UTC


291438Z 2915/3012 35006KT P6SM SKC
BECMG 2919/2921 25006KT
FM300300 VRB03KT P6SM SKC RMK NXT FCST BY 291800Z
ATIS : ENG : +1 514-633-3037 FRA : +1 514-633-3034



MET'MAP, your aeronautical weather chart ! - Copyright ORBIFLY December 2007 - Disclaimer

ORBIFLY MET'MAP TEAM :

Programming & Development : Alexandra Zaïnal
Concept & original design : Baudouin d'Aumeries
Assistance for programming : Marc-Olivier Méhu
Technical & hardware support : Manuel Goepfert

Contact : metmap@orbifly.com




SOURCES & CREDITS :

   NOAA